sensor_id;sensor_type;location;lat;lon;timestamp;pressure;altitude;pressure_sealevel;temperature;humidity
23164;BME280;31429;42.674;23.350;2022-12-22T00:00:58;95049.13;;;-1.31;100.00
23164;BME280;31429;42.674;23.350;2022-12-22T00:02:19;95044.97;;;-1.28;100.00
23164;BME280;31429;42.674;23.350;2022-12-22T00:03:38;95050.81;;;-1.29;100.00
23164;BME280;31429;42.674;23.350;2022-12-22T00:04:57;95036.69;;;-1.19;100.00
23164;BME280;31429;42.674;23.350;2022-12-22T00:06:17;95037.78;;;-0.96;100.00
23164;BME280;31429;42.674;23.350;2022-12-22T00:07:36;95036.28;;;-0.79;100.00
23164;BME280;31429;42.674;23.350;2022-12-22T00:08:56;95037.19;;;-0.72;100.00
23164;BME280;31429;42.674;23.350;2022-12-22T00:10:15;95043.91;;;-0.70;100.00
23164;BME280;31429;42.674;23.350;2022-12-22T00:11:35;95038.88;;;-0.73;100.00
23164;BME280;31429;42.674;23.350;2022-12-22T00:12:54;95034.56;;;-0.86;100.00
23164;BME280;31429;42.674;23.350;2022-12-22T00:14:14;95042.88;;;-0.90;100.00
23164;BME280;31429;42.674;23.350;2022-12-22T00:15:34;95040.97;;;-1.10;100.00
23164;BME280;31429;42.674;23.350;2022-12-22T00:16:53;95042.56;;;-1.19;100.00
23164;BME280;31429;42.674;23.350;2022-12-22T00:18:13;95042.44;;;-1.28;100.00
23164;BME280;31429;42.674;23.350;2022-12-22T00:19:33;95045.81;;;-1.29;100.00
23164;BME280;31429;42.674;23.350;2022-12-22T00:20:52;95045.81;;;-1.29;100.00
23164;BME280;31429;42.674;23.350;2022-12-22T00:22:19;95041.56;;;-1.34;100.00
23164;BME280;31429;42.674;23.350;2022-12-22T00:23:38;95044.88;;;-1.35;100.00
23164;BME280;31429;42.674;23.350;2022-12-22T00:24:58;95044.88;;;-1.37;100.00
23164;BME280;31429;42.674;23.350;2022-12-22T00:26:17;95034.81;;;-1.40;100.00
23164;BME280;31429;42.674;23.350;2022-12-22T00:27:38;95044.09;;;-1.30;100.00
23164;BME280;31429;42.674;23.350;2022-12-22T00:28:57;95050.91;;;-1.23;100.00
23164;BME280;31429;42.674;23.350;2022-12-22T00:30:17;95040.06;;;-1.20;100.00
23164;BME280;31429;42.674;23.350;2022-12-22T00:31:36;95042.44;;;-1.28;100.00
23164;BME280;31429;42.674;23.350;2022-12-22T00:32:55;95045.72;;;-1.35;100.00
23164;BME280;31429;42.674;23.350;2022-12-22T00:34:16;95045.69;;;-1.36;100.00
23164;BME280;31429;42.674;23.350;2022-12-22T00:35:36;95045.59;;;-1.45;100.00
23164;BME280;31429;42.674;23.350;2022-12-22T00:36:55;95045.59;;;-1.45;100.00
23164;BME280;31429;42.674;23.350;2022-12-22T00:38:16;95048.13;;;-1.45;100.00
23164;BME280;31429;42.674;23.350;2022-12-22T00:39:35;95043.09;;;-1.44;100.00
23164;BME280;31429;42.674;23.350;2022-12-22T00:40:54;95038.84;;;-1.51;100.00
23164;BME280;31429;42.674;23.350;2022-12-22T00:42:13;95042.25;;;-1.44;100.00
23164;BME280;31429;42.674;23.350;2022-12-22T00:43:34;95035.03;;;-1.19;100.00
23164;BME280;31429;42.674;23.350;2022-12-22T00:44:54;95024.97;;;-1.23;100.00
23164;BME280;31429;42.674;23.350;2022-12-22T00:46:15;95039.06;;;-1.34;100.00
23164;BME280;31429;42.674;23.350;2022-12-22T00:47:36;95038.22;;;-1.35;100.00
23164;BME280;31429;42.674;23.350;2022-12-22T00:48:55;95022.16;;;-1.47;100.00
23164;BME280;31429;42.674;23.350;2022-12-22T00:50:15;95030.78;;;-1.26;100.00
23164;BME280;31429;42.674;23.350;2022-12-22T00:51:34;95033.53;;;-1.06;100.00
23164;BME280;31429;42.674;23.350;2022-12-22T00:52:54;95036.06;;;-1.01;100.00
23164;BME280;31429;42.674;23.350;2022-12-22T00:54:16;95029.63;;;-0.77;100.00
23164;BME280;31429;42.674;23.350;2022-12-22T00:55:37;95025.34;;;-0.87;100.00
23164;BME280;31429;42.674;23.350;2022-12-22T00:56:57;95029.34;;;-1.05;100.00
23164;BME280;31429;42.674;23.350;2022-12-22T00:58:19;95031.88;;;-1.02;100.00
23164;BME280;31429;42.674;23.350;2022-12-22T00:59:40;95025.97;;;-1.07;100.00
23164;BME280;31429;42.674;23.350;2022-12-22T01:00:59;95028.34;;;-1.18;100.00
23164;BME280;31429;42.674;23.350;2022-12-22T01:02:19;95031.66;;;-1.24;100.00
23164;BME280;31429;42.674;23.350;2022-12-22T01:03:38;95020.75;;;-1.24;100.00
23164;BME280;31429;42.674;23.350;2022-12-22T01:04:57;95024.28;;;-1.08;100.00
23164;BME280;31429;42.674;23.350;2022-12-22T01:06:15;95020.28;;;-0.90;100.00
23164;BME280;31429;42.674;23.350;2022-12-22T01:07:34;95012.03;;;-0.78;100.00
23164;BME280;31429;42.674;23.350;2022-12-22T01:08:54;95017.25;;;-0.59;100.00
23164;BME280;31429;42.674;23.350;2022-12-22T01:10:13;95012.91;;;-0.75;100.00
23164;BME280;31429;42.674;23.350;2022-12-22T01:11:34;95019.34;;;-1.01;100.00
23164;BME280;31429;42.674;23.350;2022-12-22T01:12:53;95013.31;;;-1.18;100.00
23164;BME280;31429;42.674;23.350;2022-12-22T01:14:14;95016.59;;;-1.24;100.00
23164;BME280;31429;42.674;23.350;2022-12-22T01:15:35;95012.47;;;-1.20;100.00
23164;BME280;31429;42.674;23.350;2022-12-22T01:16:54;94999.03;;;-1.24;100.00
23164;BME280;31429;42.674;23.350;2022-12-22T01:18:13;95010.88;;;-1.12;100.00
23164;BME280;31429;42.674;23.350;2022-12-22T01:19:33;95002.63;;;-0.99;100.00
23164;BME280;31429;42.674;23.350;2022-12-22T01:20:52;94996.16;;;-0.76;100.00
23164;BME280;31429;42.674;23.350;2022-12-22T01:22:12;94990.44;;;-0.63;100.00
23164;BME280;31429;42.674;23.350;2022-12-22T01:23:33;94989.66;;;-0.55;100.00
23164;BME280;31429;42.674;23.350;2022-12-22T01:24:53;94992.19;;;-0.51;100.00
23164;BME280;31429;42.674;23.350;2022-12-22T01:26:12;94989.69;;;-0.54;100.00
23164;BME280;31429;42.674;23.350;2022-12-22T01:27:31;94991.44;;;-0.41;100.00
23164;BME280;31429;42.674;23.350;2022-12-22T01:28:50;94994.84;;;-0.34;100.00
23164;BME280;31429;42.674;23.350;2022-12-22T01:30:10;94990.63;;;-0.37;100.00
23164;BME280;31429;42.674;23.350;2022-12-22T01:31:31;95002.09;;;-0.68;100.00
23164;BME280;31429;42.674;23.350;2022-12-22T01:32:50;95000.97;;;-1.00;100.00
23164;BME280;31429;42.674;23.350;2022-12-22T01:34:09;94989.09;;;-1.16;100.00
23164;BME280;31429;42.674;23.350;2022-12-22T01:35:31;94994.00;;;-1.27;100.00
23164;BME280;31429;42.674;23.350;2022-12-22T01:36:51;94996.50;;;-1.28;100.00
23164;BME280;31429;42.674;23.350;2022-12-22T01:38:10;94994.00;;;-1.27;100.00
23164;BME280;31429;42.674;23.350;2022-12-22T01:39:29;94998.16;;;-1.29;100.00
23164;BME280;31429;42.674;23.350;2022-12-22T01:40:48;95003.94;;;-1.34;100.00
23164;BME280;31429;42.674;23.350;2022-12-22T01:42:10;95003.09;;;-1.35;100.00
23164;BME280;31429;42.674;23.350;2022-12-22T01:43:31;95003.13;;;-1.32;100.00
23164;BME280;31429;42.674;23.350;2022-12-22T01:44:51;94996.50;;;-1.27;100.00
23164;BME280;31429;42.674;23.350;2022-12-22T01:46:21;95002.44;;;-1.20;100.00
23164;BME280;31429;42.674;23.350;2022-12-22T01:47:42;94996.50;;;-1.27;100.00
23164;BME280;31429;42.674;23.350;2022-12-22T01:49:01;94996.44;;;-1.33;100.00
23164;BME280;31429;42.674;23.350;2022-12-22T01:50:27;94997.16;;;-1.43;100.00
23164;BME280;31429;42.674;23.350;2022-12-22T01:51:48;94994.47;;;-1.58;100.00
23164;BME280;31429;42.674;23.350;2022-12-22T01:53:10;95000.28;;;-1.62;100.00
23164;BME280;31429;42.674;23.350;2022-12-22T01:54:30;95002.72;;;-1.68;100.00
23164;BME280;31429;42.674;23.350;2022-12-22T01:55:50;95002.63;;;-1.73;100.00
23164;BME280;31429;42.674;23.350;2022-12-22T01:57:09;95000.94;;;-1.77;100.00
23164;BME280;31429;42.674;23.350;2022-12-22T01:58:33;95003.38;;;-1.81;100.00
23164;BME280;31429;42.674;23.350;2022-12-22T01:59:53;95008.34;;;-1.84;100.00
23164;BME280;31429;42.674;23.350;2022-12-22T02:01:13;95005.66;;;-1.98;100.00
23164;BME280;31429;42.674;23.350;2022-12-22T02:02:32;95002.38;;;-1.94;100.00
23164;BME280;31429;42.674;23.350;2022-12-22T02:03:53;95009.03;;;-1.94;100.00
23164;BME280;31429;42.674;23.350;2022-12-22T02:05:14;95001.56;;;-1.91;100.00
23164;BME280;31429;42.674;23.350;2022-12-22T02:06:36;95004.13;;;-1.87;100.00
23164;BME280;31429;42.674;23.350;2022-12-22T02:08:05;94995.66;;;-1.96;100.00
23164;BME280;31429;42.674;23.350;2022-12-22T02:09:31;94989.84;;;-1.94;100.00
23164;BME280;31429;42.674;23.350;2022-12-22T02:11:12;95002.41;;;-1.91;100.00
23164;BME280;31429;42.674;23.350;2022-12-22T02:12:38;95003.22;;;-1.92;100.00
23164;BME280;31429;42.674;23.350;2022-12-22T02:14:07;94994.88;;;-1.92;100.00
23164;BME280;31429;42.674;23.350;2022-12-22T02:15:31;94995.59;;;-2.01;100.00
23164;BME280;31429;42.674;23.350;2022-12-22T02:16:57;94999.00;;;-1.96;100.00
23164;BME280;31429;42.674;23.350;2022-12-22T02:18:22;95002.34;;;-1.97;100.00
23164;BME280;31429;42.674;23.350;2022-12-22T02:20:09;94997.19;;;-2.07;100.00
23164;BME280;31429;42.674;23.350;2022-12-22T02:21:39;95001.41;;;-2.03;100.00
23164;BME280;31429;42.674;23.350;2022-12-22T02:23:07;94998.84;;;-2.08;100.00
23164;BME280;31429;42.674;23.350;2022-12-22T02:24:36;95002.22;;;-2.04;100.00
23164;BME280;31429;42.674;23.350;2022-12-22T02:26:02;95000.56;;;-2.04;100.00
23164;BME280;31429;42.674;23.350;2022-12-22T02:27:26;95000.72;;;-1.92;100.00
23164;BME280;31429;42.674;23.350;2022-12-22T02:28:46;94996.47;;;-1.97;100.00
23164;BME280;31429;42.674;23.350;2022-12-22T02:30:08;94989.97;;;-1.85;100.00
23164;BME280;31429;42.674;23.350;2022-12-22T02:31:33;94993.66;;;-1.57;100.00
23164;BME280;31429;42.674;23.350;2022-12-22T02:32:53;94998.63;;;-1.58;100.00
23164;BME280;31429;42.674;23.350;2022-12-22T02:34:13;94993.59;;;-1.61;100.00
23164;BME280;31429;42.674;23.350;2022-12-22T02:35:42;94999.31;;;-1.71;100.00
23164;BME280;31429;42.674;23.350;2022-12-22T02:37:10;94995.00;;;-1.85;100.00
23164;BME280;31429;42.674;23.350;2022-12-22T02:38:40;94996.56;;;-1.91;100.00
23164;BME280;31429;42.674;23.350;2022-12-22T02:40:09;95000.63;;;-1.98;100.00
23164;BME280;31429;42.674;23.350;2022-12-22T02:41:37;94992.44;;;-1.88;100.00
23164;BME280;31429;42.674;23.350;2022-12-22T02:43:06;94992.34;;;-1.94;100.00
23164;BME280;31429;42.674;23.350;2022-12-22T02:44:36;94989.69;;;-2.07;100.00
23164;BME280;31429;42.674;23.350;2022-12-22T02:46:04;94994.69;;;-2.04;100.00
23164;BME280;31429;42.674;23.350;2022-12-22T02:47:32;94991.47;;;-1.99;100.00
23164;BME280;31429;42.674;23.350;2022-12-22T02:48:56;94991.28;;;-2.09;100.00
23164;BME280;31429;42.674;23.350;2022-12-22T02:50:22;94987.91;;;-2.14;100.00
23164;BME280;31429;42.674;23.350;2022-12-22T02:51:46;94992.91;;;-2.16;100.00
23164;BME280;31429;42.674;23.350;2022-12-22T02:53:07;94991.16;;;-2.18;100.00
23164;BME280;31429;42.674;23.350;2022-12-22T02:54:27;94987.75;;;-2.23;100.00
23164;BME280;31429;42.674;23.350;2022-12-22T02:55:49;94985.28;;;-2.22;100.00
23164;BME280;31429;42.674;23.350;2022-12-22T02:57:09;94995.19;;;-2.29;100.00
23164;BME280;31429;42.674;23.350;2022-12-22T02:58:30;94990.97;;;-2.34;100.00
23164;BME280;31429;42.674;23.350;2022-12-22T02:59:50;94988.50;;;-2.30;100.00
23164;BME280;31429;42.674;23.350;2022-12-22T03:01:10;94983.41;;;-2.37;100.00
23164;BME280;31429;42.674;23.350;2022-12-22T03:02:29;94991.75;;;-2.36;100.00
23164;BME280;31429;42.674;23.350;2022-12-22T03:03:48;94991.84;;;-2.30;100.00
23164;BME280;31429;42.674;23.350;2022-12-22T03:05:07;94979.53;;;-2.16;100.00
23164;BME280;31429;42.674;23.350;2022-12-22T03:06:27;94987.00;;;-2.18;100.00
23164;BME280;31429;42.674;23.350;2022-12-22T03:07:46;94987.75;;;-2.23;100.00
23164;BME280;31429;42.674;23.350;2022-12-22T03:09:05;94983.50;;;-2.30;100.00
23164;BME280;31429;42.674;23.350;2022-12-22T03:10:24;94990.97;;;-2.34;100.00
23164;BME280;31429;42.674;23.350;2022-12-22T03:11:43;94986.00;;;-2.30;100.00
23164;BME280;31429;42.674;23.350;2022-12-22T03:13:02;94982.88;;;-2.14;100.00
23164;BME280;31429;42.674;23.350;2022-12-22T03:14:23;94974.53;;;-2.16;100.00
23164;BME280;31429;42.674;23.350;2022-12-22T03:15:43;94982.97;;;-2.08;100.00
23164;BME280;31429;42.674;23.350;2022-12-22T03:17:02;94985.44;;;-2.10;100.00
23164;BME280;31429;42.674;23.350;2022-12-22T03:18:21;94990.31;;;-2.20;100.00
23164;BME280;31429;42.674;23.350;2022-12-22T03:19:41;94991.09;;;-2.24;100.00
23164;BME280;31429;42.674;23.350;2022-12-22T03:21:00;94990.41;;;-2.14;100.00
23164;BME280;31429;42.674;23.350;2022-12-22T03:22:19;94983.06;;;-2.02;100.00
23164;BME280;31429;42.674;23.350;2022-12-22T03:23:38;94983.81;;;-2.06;100.00
23164;BME280;31429;42.674;23.350;2022-12-22T03:24:57;94994.56;;;-2.16;100.00
23164;BME280;31429;42.674;23.350;2022-12-22T03:26:16;94997.88;;;-2.17;100.00
23164;BME280;31429;42.674;23.350;2022-12-22T03:27:18;94997.88;;;-2.17;100.00
23164;BME280;31429;42.674;23.350;2022-12-22T03:28:20;94996.16;;;-2.20;100.00
23164;BME280;31429;42.674;23.350;2022-12-22T03:29:23;94989.50;;;-2.19;100.00
23164;BME280;31429;42.674;23.350;2022-12-22T03:30:23;94981.28;;;-2.09;100.00
23164;BME280;31429;42.674;23.350;2022-12-22T03:31:24;94979.66;;;-2.06;100.00
23164;BME280;31429;42.674;23.350;2022-12-22T03:32:25;94982.47;;;-1.85;100.00
23164;BME280;31429;42.674;23.350;2022-12-22T03:33:26;94991.13;;;-1.58;100.00
23164;BME280;31429;42.674;23.350;2022-12-22T03:34:27;94973.72;;;-1.46;100.00
23164;BME280;31429;42.674;23.350;2022-12-22T03:35:28;94977.00;;;-1.53;100.00
23164;BME280;31429;42.674;23.350;2022-12-22T03:36:29;94986.88;;;-1.64;100.00
23164;BME280;31429;42.674;23.350;2022-12-22T03:37:29;94975.00;;;-1.79;100.00
23164;BME280;31429;42.674;23.350;2022-12-22T03:38:30;94983.25;;;-1.87;100.00
23164;BME280;31429;42.674;23.350;2022-12-22T03:39:30;94979.00;;;-1.93;100.00
23164;BME280;31429;42.674;23.350;2022-12-22T03:40:31;94980.59;;;-1.99;100.00
23164;BME280;31429;42.674;23.350;2022-12-22T03:41:32;94986.38;;;-2.03;100.00
23164;BME280;31429;42.674;23.350;2022-12-22T03:42:51;94987.31;;;-1.97;100.00
23164;BME280;31429;42.674;23.350;2022-12-22T03:44:10;94979.75;;;-2.00;100.00
23164;BME280;31429;42.674;23.350;2022-12-22T03:45:30;94987.16;;;-2.07;100.00
23164;BME280;31429;42.674;23.350;2022-12-22T03:46:49;94985.34;;;-2.17;100.00
23164;BME280;31429;42.674;23.350;2022-12-22T03:47:50;94994.41;;;-2.24;100.00
23164;BME280;31429;42.674;23.350;2022-12-22T03:48:51;94987.75;;;-2.23;100.00
23164;BME280;31429;42.674;23.350;2022-12-22T03:50:10;94987.78;;;-2.22;100.00
23164;BME280;31429;42.674;23.350;2022-12-22T03:51:11;94993.56;;;-2.26;100.00
23164;BME280;31429;42.674;23.350;2022-12-22T03:52:11;94996.88;;;-2.27;100.00
23164;BME280;31429;42.674;23.350;2022-12-22T03:53:12;94991.06;;;-2.27;100.00
23164;BME280;31429;42.674;23.350;2022-12-22T03:54:14;94986.75;;;-2.36;100.00
23164;BME280;31429;42.674;23.350;2022-12-22T03:55:15;95000.13;;;-2.36;100.00
23164;BME280;31429;42.674;23.350;2022-12-22T03:56:15;94993.38;;;-2.38;100.00
23164;BME280;31429;42.674;23.350;2022-12-22T03:57:16;94996.72;;;-2.38;100.00
23164;BME280;31429;42.674;23.350;2022-12-22T03:58:16;94992.63;;;-2.33;100.00
23164;BME280;31429;42.674;23.350;2022-12-22T03:59:18;94997.63;;;-2.33;100.00
23164;BME280;31429;42.674;23.350;2022-12-22T04:00:19;95000.19;;;-2.31;100.00
23164;BME280;31429;42.674;23.350;2022-12-22T04:01:21;94993.66;;;-2.18;100.00
23164;BME280;31429;42.674;23.350;2022-12-22T04:02:22;94984.94;;;-1.86;100.00
23164;BME280;31429;42.674;23.350;2022-12-22T04:03:22;94985.91;;;-1.77;100.00
23164;BME280;31429;42.674;23.350;2022-12-22T04:04:24;94978.19;;;-1.92;100.00
23164;BME280;31429;42.674;23.350;2022-12-22T04:05:25;94986.41;;;-2.00;100.00
23164;BME280;31429;42.674;23.350;2022-12-22T04:06:26;94986.50;;;-1.94;100.00
23164;BME280;31429;42.674;23.350;2022-12-22T04:07:27;94987.47;;;-1.82;100.00
23164;BME280;31429;42.674;23.350;2022-12-22T04:08:27;94971.06;;;-1.58;100.00
23164;BME280;31429;42.674;23.350;2022-12-22T04:09:28;94982.13;;;-1.43;100.00
23164;BME280;31429;42.674;23.350;2022-12-22T04:10:29;94985.28;;;-1.56;100.00
23164;BME280;31429;42.674;23.350;2022-12-22T04:11:48;94984.25;;;-1.73;100.00
23164;BME280;31429;42.674;23.350;2022-12-22T04:13:07;94962.34;;;-1.91;100.00
23164;BME280;31429;42.674;23.350;2022-12-22T04:14:08;94991.06;;;-1.63;100.00
23164;BME280;31429;42.674;23.350;2022-12-22T04:15:09;94972.00;;;-1.52;100.00
23164;BME280;31429;42.674;23.350;2022-12-22T04:16:10;94977.91;;;-1.45;100.00
23164;BME280;31429;42.674;23.350;2022-12-22T04:17:12;94993.66;;;-1.57;100.00
23164;BME280;31429;42.674;23.350;2022-12-22T04:18:12;94989.25;;;-1.73;100.00
23164;BME280;31429;42.674;23.350;2022-12-22T04:19:13;94985.81;;;-1.83;100.00
23164;BME280;31429;42.674;23.350;2022-12-22T04:20:15;94984.75;;;-1.98;100.00
23164;BME280;31429;42.674;23.350;2022-12-22T04:21:16;94980.47;;;-2.08;100.00
23164;BME280;31429;42.674;23.350;2022-12-22T04:22:17;94974.56;;;-2.13;100.00
23164;BME280;31429;42.674;23.350;2022-12-22T04:23:17;94982.94;;;-2.10;100.00
23164;BME280;31429;42.674;23.350;2022-12-22T04:24:18;94977.97;;;-2.07;100.00
23164;BME280;31429;42.674;23.350;2022-12-22T04:25:19;94984.72;;;-2.03;100.00
23164;BME280;31429;42.674;23.350;2022-12-22T04:26:21;94990.41;;;-2.14;100.00
23164;BME280;31429;42.674;23.350;2022-12-22T04:27:22;94979.56;;;-2.13;100.00
23164;BME280;31429;42.674;23.350;2022-12-22T04:28:23;94988.75;;;-2.14;100.00
23164;BME280;31429;42.674;23.350;2022-12-22T04:29:24;94974.53;;;-2.15;100.00
23164;BME280;31429;42.674;23.350;2022-12-22T04:30:24;94984.97;;;-1.85;100.00
23164;BME280;31429;42.674;23.350;2022-12-22T04:31:25;94975.22;;;-1.59;100.00
23164;BME280;31429;42.674;23.350;2022-12-22T04:32:27;94977.00;;;-1.50;100.00
23164;BME280;31429;42.674;23.350;2022-12-22T04:33:27;94973.75;;;-1.45;100.00
23164;BME280;31429;42.674;23.350;2022-12-22T04:34:28;94972.06;;;-1.46;100.00
23164;BME280;31429;42.674;23.350;2022-12-22T04:35:29;94977.06;;;-1.44;100.00
23164;BME280;31429;42.674;23.350;2022-12-22T04:36:29;94975.19;;;-1.65;100.00
23164;BME280;31429;42.674;23.350;2022-12-22T04:37:30;94975.91;;;-1.73;100.00
23164;BME280;31429;42.674;23.350;2022-12-22T04:38:31;94976.13;;;-1.57;100.00
23164;BME280;31429;42.674;23.350;2022-12-22T04:39:31;94977.81;;;-1.53;100.00
23164;BME280;31429;42.674;23.350;2022-12-22T04:40:32;94975.13;;;-1.71;100.00
23164;BME280;31429;42.674;23.350;2022-12-22T04:41:33;94977.28;;;-1.95;100.00
23164;BME280;31429;42.674;23.350;2022-12-22T04:42:33;94987.94;;;-2.13;100.00
23164;BME280;31429;42.674;23.350;2022-12-22T04:43:34;94983.56;;;-2.26;100.00
23164;BME280;31429;42.674;23.350;2022-12-22T04:44:35;94992.63;;;-2.33;100.00
23164;BME280;31429;42.674;23.350;2022-12-22T04:45:36;94991.81;;;-2.32;100.00
23164;BME280;31429;42.674;23.350;2022-12-22T04:46:36;94987.94;;;-2.13;100.00
23164;BME280;31429;42.674;23.350;2022-12-22T04:47:38;94984.22;;;-1.78;100.00
23164;BME280;31429;42.674;23.350;2022-12-22T04:48:39;94986.16;;;-1.55;100.00
23164;BME280;31429;42.674;23.350;2022-12-22T04:49:39;94984.69;;;-1.37;100.00
23164;BME280;31429;42.674;23.350;2022-12-22T04:50:40;94983.13;;;-1.27;100.00
23164;BME280;31429;42.674;23.350;2022-12-22T04:51:41;94981.44;;;-1.28;100.00
23164;BME280;31429;42.674;23.350;2022-12-22T04:52:41;94980.66;;;-1.24;100.00
23164;BME280;31429;42.674;23.350;2022-12-22T04:53:42;94985.66;;;-1.26;100.00
23164;BME280;31429;42.674;23.350;2022-12-22T04:54:43;94983.16;;;-1.24;100.00
23164;BME280;31429;42.674;23.350;2022-12-22T04:55:44;94982.22;;;-1.34;100.00
23164;BME280;31429;42.674;23.350;2022-12-22T04:56:45;94978.69;;;-1.51;100.00
23164;BME280;31429;42.674;23.350;2022-12-22T04:57:46;94987.03;;;-1.52;100.00
23164;BME280;31429;42.674;23.350;2022-12-22T04:58:46;94982.66;;;-1.66;100.00
23164;BME280;31429;42.674;23.350;2022-12-22T04:59:47;94976.59;;;-1.85;100.00
23164;BME280;31429;42.674;23.350;2022-12-22T05:00:48;94979.78;;;-1.95;100.00
23164;BME280;31429;42.674;23.350;2022-12-22T05:01:48;94974.78;;;-1.95;100.00
23164;BME280;31429;42.674;23.350;2022-12-22T05:02:50;94979.88;;;-1.89;100.00
23164;BME280;31429;42.674;23.350;2022-12-22T05:03:51;94979.00;;;-1.94;100.00
23164;BME280;31429;42.674;23.350;2022-12-22T05:04:52;94975.63;;;-1.96;100.00
23164;BME280;31429;42.674;23.350;2022-12-22T05:05:52;94982.31;;;-1.95;100.00
23164;BME280;31429;42.674;23.350;2022-12-22T05:06:53;94978.25;;;-1.86;100.00
23164;BME280;31429;42.674;23.350;2022-12-22T05:07:54;94969.25;;;-1.71;100.00
23164;BME280;31429;42.674;23.350;2022-12-22T05:08:54;94975.34;;;-1.50;100.00
23164;BME280;31429;42.674;23.350;2022-12-22T05:09:55;94968.63;;;-1.54;100.00
23164;BME280;31429;42.674;23.350;2022-12-22T05:10:56;94981.94;;;-1.59;100.00
23164;BME280;31429;42.674;23.350;2022-12-22T05:11:56;94976.13;;;-1.55;100.00
23164;BME280;31429;42.674;23.350;2022-12-22T05:12:57;94975.97;;;-1.69;100.00
23164;BME280;31429;42.674;23.350;2022-12-22T05:13:58;94976.78;;;-1.70;100.00
23164;BME280;31429;42.674;23.350;2022-12-22T05:14:58;94981.91;;;-1.61;100.00
23164;BME280;31429;42.674;23.350;2022-12-22T05:16:03;94970.28;;;-1.53;100.00
23164;BME280;31429;42.674;23.350;2022-12-22T05:17:04;94981.94;;;-1.59;100.00
23164;BME280;31429;42.674;23.350;2022-12-22T05:18:06;94989.25;;;-1.76;100.00
23164;BME280;31429;42.674;23.350;2022-12-22T05:19:07;94987.47;;;-1.82;100.00
23164;BME280;31429;42.674;23.350;2022-12-22T05:20:08;94987.47;;;-1.83;100.00
23164;BME280;31429;42.674;23.350;2022-12-22T05:21:11;94981.75;;;-1.73;100.00
23164;BME280;31429;42.674;23.350;2022-12-22T05:22:12;94989.94;;;-1.86;100.00
23164;BME280;31429;42.674;23.350;2022-12-22T05:23:13;94979.03;;;-1.90;100.00
23164;BME280;31429;42.674;23.350;2022-12-22T05:24:13;94991.78;;;-1.73;100.00
23164;BME280;31429;42.674;23.350;2022-12-22T05:25:15;94981.97;;;-1.55;100.00
23164;BME280;31429;42.674;23.350;2022-12-22T05:26:16;94983.66;;;-1.54;100.00
23164;BME280;31429;42.674;23.350;2022-12-22T05:27:17;94984.63;;;-1.43;100.00
23164;BME280;31429;42.674;23.350;2022-12-22T05:28:18;94988.81;;;-1.43;100.00
23164;BME280;31429;42.674;23.350;2022-12-22T05:29:19;94992.84;;;-1.53;100.00
23164;BME280;31429;42.674;23.350;2022-12-22T05:30:20;94994.28;;;-1.73;100.00
23164;BME280;31429;42.674;23.350;2022-12-22T05:31:22;95004.88;;;-1.94;100.00
23164;BME280;31429;42.674;23.350;2022-12-22T05:32:23;95003.09;;;-2.01;100.00
23164;BME280;31429;42.674;23.350;2022-12-22T05:33:25;95003.19;;;-1.96;100.00
23164;BME280;31429;42.674;23.350;2022-12-22T05:34:26;94997.47;;;-1.86;100.00
23164;BME280;31429;42.674;23.350;2022-12-22T05:35:26;94995.16;;;-1.71;100.00
23164;BME280;31429;42.674;23.350;2022-12-22T05:36:27;94994.44;;;-1.62;100.00
23164;BME280;31429;42.674;23.350;2022-12-22T05:37:28;94986.91;;;-1.62;100.00
23164;BME280;31429;42.674;23.350;2022-12-22T05:38:29;94994.47;;;-1.58;100.00
23164;BME280;31429;42.674;23.350;2022-12-22T05:39:29;94991.78;;;-1.73;100.00
23164;BME280;31429;42.674;23.350;2022-12-22T05:40:30;94992.41;;;-1.89;100.00
23164;BME280;31429;42.674;23.350;2022-12-22T05:41:31;94998.00;;;-2.08;100.00
23164;BME280;31429;42.674;23.350;2022-12-22T05:42:31;94999.53;;;-2.18;100.00
23164;BME280;31429;42.674;23.350;2022-12-22T05:43:38;94989.22;;;-2.38;100.00
23164;BME280;31429;42.674;23.350;2022-12-22T05:44:39;94999.22;;;-2.38;100.00
23164;BME280;31429;42.674;23.350;2022-12-22T05:45:39;94984.88;;;-2.49;100.00
23164;BME280;31429;42.674;23.350;2022-12-22T05:46:40;94999.03;;;-2.51;100.00
23164;BME280;31429;42.674;23.350;2022-12-22T05:47:41;94991.47;;;-2.54;100.00
23164;BME280;31429;42.674;23.350;2022-12-22T05:48:43;94989.16;;;-2.42;100.00
23164;BME280;31429;42.674;23.350;2022-12-22T05:49:44;94996.72;;;-2.39;100.00
23164;BME280;31429;42.674;23.350;2022-12-22T05:50:44;94991.63;;;-2.45;100.00
23164;BME280;31429;42.674;23.350;2022-12-22T05:51:45;94991.47;;;-2.56;100.00
23164;BME280;31429;42.674;23.350;2022-12-22T05:52:46;94994.81;;;-2.54;100.00
23164;BME280;31429;42.674;23.350;2022-12-22T05:53:47;94994.03;;;-2.50;100.00
23164;BME280;31429;42.674;23.350;2022-12-22T05:54:47;94993.28;;;-2.46;100.00
23164;BME280;31429;42.674;23.350;2022-12-22T05:55:48;94986.66;;;-2.42;100.00
23164;BME280;31429;42.674;23.350;2022-12-22T05:56:49;94993.28;;;-2.47;100.00
23164;BME280;31429;42.674;23.350;2022-12-22T05:57:49;94999.94;;;-2.46;100.00
23164;BME280;31429;42.674;23.350;2022-12-22T05:58:50;94994.88;;;-2.51;100.00
23164;BME280;31429;42.674;23.350;2022-12-22T05:59:51;94988.97;;;-2.54;100.00
23164;BME280;31429;42.674;23.350;2022-12-22T06:00:55;94986.47;;;-2.54;100.00
23164;BME280;31429;42.674;23.350;2022-12-22T06:01:56;94988.47;;;-2.32;100.00
23164;BME280;31429;42.674;23.350;2022-12-22T06:02:57;95000.41;;;-2.16;100.00
23164;BME280;31429;42.674;23.350;2022-12-22T06:03:59;94992.41;;;-1.89;100.00
23164;BME280;31429;42.674;23.350;2022-12-22T06:04:59;94986.75;;;-1.75;100.00
23164;BME280;31429;42.674;23.350;2022-12-22T06:06:00;94994.28;;;-1.73;100.00
23164;BME280;31429;42.674;23.350;2022-12-22T06:07:00;94991.59;;;-1.88;100.00
23164;BME280;31429;42.674;23.350;2022-12-22T06:08:01;94990.16;;;-1.71;100.00
23164;BME280;31429;42.674;23.350;2022-12-22T06:09:02;94990.16;;;-1.71;100.00